Time,TemperatureF,DewpointF,PressureIn,WindDirection,WindDirectionDegrees,WindSpeedMPH,WindSpeedGustMPH,Humidity,HourlyPrecipIn,Conditions,Clouds,dailyrainin,SoftwareType,DateUTC
2013-01-04 00:00:00,23.5,16.7,30.06,West,267,0.0,8.0,75,0.00,,,0.01,Wunderground v.1.15,2013-01-04 05:00:00,
2013-01-04 00:05:00,23.5,16.7,30.06,West,275,0.0,8.0,75,0.00,,,0.00,Wunderground v.1.15,2013-01-04 05:05:00,
2013-01-04 00:10:00,23.7,17.2,30.05,South,190,1.0,8.0,76,0.00,,,0.00,Wunderground v.1.15,2013-01-04 05:10:00,
2013-01-04 00:15:00,23.9,17.4,30.05,WNW,290,1.0,8.0,76,0.00,,,0.00,Wunderground v.1.15,2013-01-04 05:15:00,
2013-01-04 00:20:00,24.0,17.5,30.05,WNW,284,1.0,8.0,76,0.00,,,0.00,Wunderground v.1.15,2013-01-04 05:20:00,
2013-01-04 00:25:00,24.0,17.5,30.05,SW,236,1.0,8.0,76,0.00,,,0.00,Wunderground v.1.15,2013-01-04 05:25:00,
2013-01-04 00:30:00,24.1,17.6,30.05,West,262,1.0,1.0,76,0.00,,,0.00,Wunderground v.1.15,2013-01-04 05:30:00,
2013-01-04 00:35:00,24.0,17.5,30.04,West,281,2.0,2.0,76,0.00,,,0.00,Wunderground v.1.15,2013-01-04 05:35:00,
2013-01-04 00:40:00,24.0,17.5,30.04,WSW,238,1.0,1.0,76,0.00,,,0.00,Wunderground v.1.15,2013-01-04 05:40:00,
2013-01-04 00:45:00,24.1,17.9,30.04,WNW,284,1.0,8.0,77,0.00,,,0.00,Wunderground v.1.15,2013-01-04 05:45:00,
2013-01-04 00:50:00,24.1,17.6,30.04,West,263,1.0,8.0,76,0.00,,,0.00,Wunderground v.1.15,2013-01-04 05:50:00,
2013-01-04 00:55:00,24.0,17.8,30.05,NNW,340,0.0,8.0,77,0.00,,,0.00,Wunderground v.1.15,2013-01-04 05:55:00,
2013-01-04 01:05:00,23.9,17.7,30.05,NW,308,0.0,8.0,77,0.00,,,0.00,Wunderground v.1.15,2013-01-04 06:05:00,
2013-01-04 01:10:00,23.6,17.4,30.05,WNW,296,0.0,8.0,77,0.00,,,0.00,Wunderground v.1.15,2013-01-04 06:10:00,
2013-01-04 01:15:00,23.5,17.6,30.05,North,5,0.0,8.0,78,0.00,,,0.00,Wunderground v.1.15,2013-01-04 06:15:00,
2013-01-04 01:20:00,23.7,17.8,30.04,West,267,0.0,8.0,78,0.00,,,0.00,Wunderground v.1.15,2013-01-04 06:20:00,
2013-01-04 01:30:00,23.9,18.0,30.04,West,281,1.0,1.0,78,0.00,,,0.00,Wunderground v.1.15,2013-01-04 06:30:00,
2013-01-04 01:35:00,24.1,18.5,30.04,WNW,293,1.0,8.0,79,0.00,,,0.00,Wunderground v.1.15,2013-01-04 06:35:00,
2013-01-04 01:40:00,24.2,18.3,30.04,WNW,302,1.0,8.0,78,0.00,,,0.00,Wunderground v.1.15,2013-01-04 06:40:00,
2013-01-04 01:45:00,24.2,18.3,30.04,West,271,1.0,8.0,78,0.00,,,0.00,Wunderground v.1.15,2013-01-04 06:45:00,
2013-01-04 01:50:00,24.2,18.3,30.05,West,273,0.0,8.0,78,0.00,,,0.00,Wunderground v.1.15,2013-01-04 06:50:00,
2013-01-04 01:55:00,24.2,18.3,30.04,West,261,0.0,8.0,78,0.00,,,0.00,Wunderground v.1.15,2013-01-04 06:55:00,
2013-01-04 02:05:00,24.5,18.9,30.05,West,279,1.0,8.0,79,0.00,,,0.00,Wunderground v.1.15,2013-01-04 07:05:00,
2013-01-04 02:10:00,24.8,18.9,30.04,West,273,2.0,8.0,78,0.00,,,0.00,Wunderground v.1.15,2013-01-04 07:10:00,
2013-01-04 02:15:00,25.0,19.1,30.05,West,261,2.0,8.0,78,0.00,,,0.00,Wunderground v.1.15,2013-01-04 07:15:00,
2013-01-04 02:25:00,25.2,19.3,30.04,WNW,283,1.0,8.0,78,0.00,,,0.00,Wunderground v.1.15,2013-01-04 07:25:00,
2013-01-04 02:30:00,25.1,19.5,30.04,WNW,299,0.0,8.0,79,0.00,,,0.00,Wunderground v.1.15,2013-01-04 07:30:00,
2013-01-04 02:35:00,25.3,19.7,30.04,SSW,211,1.0,8.0,79,0.00,,,0.00,Wunderground v.1.15,2013-01-04 07:35:00,
2013-01-04 02:40:00,25.5,19.9,30.04,West,279,1.0,8.0,79,0.00,,,0.00,Wunderground v.1.15,2013-01-04 07:40:00,
2013-01-04 02:50:00,25.9,20.0,30.04,NW,304,1.0,1.0,78,0.00,,,0.00,Wunderground v.1.15,2013-01-04 07:50:00,
2013-01-04 03:00:00,26.2,20.3,30.04,West,274,2.0,8.0,78,0.00,,,0.00,Wunderground v.1.15,2013-01-04 08:00:00,
2013-01-04 03:05:00,26.3,20.1,30.04,WNW,286,3.0,8.0,77,0.00,,,0.00,Wunderground v.1.15,2013-01-04 08:05:00,
2013-01-04 03:10:00,26.2,20.3,30.04,West,273,2.0,8.0,78,0.00,,,0.00,Wunderground v.1.15,2013-01-04 08:10:00,
2013-01-04 03:15:00,26.2,20.3,30.03,NNW,327,2.0,8.0,78,0.00,,,0.00,Wunderground v.1.15,2013-01-04 08:15:00,
2013-01-04 03:20:00,26.1,20.2,30.03,West,271,3.0,3.0,78,0.00,,,0.00,Wunderground v.1.15,2013-01-04 08:20:00,
2013-01-04 03:25:00,26.0,20.1,30.03,NW,322,2.0,8.0,78,0.00,,,0.00,Wunderground v.1.15,2013-01-04 08:25:00,
2013-01-04 03:30:00,25.8,19.9,30.03,WNW,300,2.0,8.0,78,0.00,,,0.00,Wunderground v.1.15,2013-01-04 08:30:00,
2013-01-04 03:40:00,25.6,20.0,30.03,WNW,298,1.0,1.0,79,0.00,,,0.00,Wunderground v.1.15,2013-01-04 08:40:00,
2013-01-04 03:45:00,25.5,19.9,30.03,WNW,290,1.0,3.0,79,0.00,,,0.00,Wunderground v.1.15,2013-01-04 08:45:00,
2013-01-04 03:50:00,25.6,20.0,30.03,WNW,286,2.0,2.0,79,0.00,,,0.00,Wunderground v.1.15,2013-01-04 08:50:00,
2013-01-04 03:55:00,25.7,20.1,30.03,NW,304,2.0,8.0,79,0.00,,,0.00,Wunderground v.1.15,2013-01-04 08:55:00,
2013-01-04 04:05:00,25.6,20.0,30.03,West,281,2.0,8.0,79,0.00,,,0.00,Wunderground v.1.15,2013-01-04 09:05:00,
2013-01-04 04:15:00,25.5,20.2,30.03,WNW,286,1.0,8.0,80,0.00,,,0.00,Wunderground v.1.15,2013-01-04 09:15:00,
2013-01-04 04:20:00,25.5,20.2,30.03,West,271,1.0,1.0,80,0.00,,,0.00,Wunderground v.1.15,2013-01-04 09:20:00,
2013-01-04 04:25:00,25.3,20.0,30.03,NW,313,1.0,8.0,80,0.00,,,0.00,Wunderground v.1.15,2013-01-04 09:25:00,
2013-01-04 04:30:00,25.1,19.8,30.03,West,273,0.0,8.0,80,0.00,,,0.00,Wunderground v.1.15,2013-01-04 09:30:00,
2013-01-04 04:35:00,25.2,20.2,30.03,West,279,1.0,8.0,81,0.00,,,0.00,Wunderground v.1.15,2013-01-04 09:35:00,
2013-01-04 04:40:00,25.4,20.4,30.03,North,355,2.0,2.0,81,0.00,,,0.00,Wunderground v.1.15,2013-01-04 09:40:00,
2013-01-04 04:50:00,25.4,20.4,30.03,NW,315,1.0,8.0,81,0.00,,,0.00,Wunderground v.1.15,2013-01-04 09:50:00,
2013-01-04 04:55:00,25.4,20.4,30.04,WNW,298,2.0,8.0,81,0.00,,,0.00,Wunderground v.1.15,2013-01-04 09:55:00,
2013-01-04 05:00:00,25.3,20.6,30.04,NW,316,1.0,1.0,82,0.00,,,0.00,Wunderground v.1.15,2013-01-04 10:00:00,
2013-01-04 05:05:00,25.2,20.2,30.03,NNW,327,1.0,2.0,81,0.00,,,0.00,Wunderground v.1.15,2013-01-04 10:05:00,
2013-01-04 05:10:00,25.2,20.5,30.03,WNW,292,1.0,1.0,82,0.00,,,0.00,Wunderground v.1.15,2013-01-04 10:10:00,
2013-01-04 05:15:00,25.1,20.4,30.03,West,267,1.0,2.0,82,0.00,,,0.00,Wunderground v.1.15,2013-01-04 10:15:00,
2013-01-04 05:20:00,25.1,20.4,30.04,West,264,1.0,1.0,82,0.00,,,0.00,Wunderground v.1.15,2013-01-04 10:20:00,
2013-01-04 05:30:00,25.1,20.7,30.04,WSW,249,1.0,1.0,83,0.00,,,0.00,Wunderground v.1.15,2013-01-04 10:30:00,
2013-01-04 05:35:00,25.1,20.4,30.04,West,271,1.0,8.0,82,0.00,,,0.00,Wunderground v.1.15,2013-01-04 10:35:00,
2013-01-04 05:40:00,24.9,20.5,30.04,West,277,0.0,8.0,83,0.00,,,0.00,Wunderground v.1.15,2013-01-04 10:40:00,
2013-01-04 05:45:00,24.7,20.3,30.04,West,277,0.0,8.0,83,0.00,,,0.00,Wunderground v.1.15,2013-01-04 10:45:00,
2013-01-04 05:50:00,24.6,20.5,30.04,SW,236,0.0,8.0,84,0.00,,,0.00,Wunderground v.1.15,2013-01-04 10:50:00,
2013-01-04 05:55:00,24.7,20.6,30.04,West,279,1.0,8.0,84,0.00,,,0.00,Wunderground v.1.15,2013-01-04 10:55:00,
2013-01-04 06:00:00,24.6,20.5,30.04,West,273,1.0,8.0,84,0.00,,,0.00,Wunderground v.1.15,2013-01-04 11:00:00,
2013-01-04 06:10:00,24.8,20.9,30.04,WNW,289,1.0,1.0,85,0.00,,,0.00,Wunderground v.1.15,2013-01-04 11:10:00,
2013-01-04 06:15:00,24.9,21.0,30.04,WNW,289,0.0,8.0,85,0.00,,,0.00,Wunderground v.1.15,2013-01-04 11:15:00,
2013-01-04 06:20:00,24.7,20.6,30.04,West,269,0.0,8.0,84,0.00,,,0.00,Wunderground v.1.15,2013-01-04 11:20:00,
2013-01-04 06:25:00,24.5,20.4,30.04,WNW,293,0.0,8.0,84,0.00,,,0.00,Wunderground v.1.15,2013-01-04 11:25:00,
2013-01-04 06:30:00,24.2,20.1,30.04,WNW,303,0.0,8.0,84,0.00,,,0.00,Wunderground v.1.15,2013-01-04 11:30:00,
2013-01-04 06:35:00,24.2,20.6,30.04,WNW,303,0.0,8.0,86,0.00,,,0.00,Wunderground v.1.15,2013-01-04 11:35:00,
2013-01-04 06:45:00,24.3,20.7,30.04,WNW,303,0.0,8.0,86,0.00,,,0.00,Wunderground v.1.15,2013-01-04 11:45:00,
2013-01-04 06:50:00,24.6,21.0,30.04,West,280,0.0,8.0,86,0.00,,,0.00,Wunderground v.1.15,2013-01-04 11:50:00,
2013-01-04 06:55:00,24.6,20.7,30.04,West,280,0.0,8.0,85,0.00,,,0.00,Wunderground v.1.15,2013-01-04 11:55:00,
2013-01-04 07:00:00,24.5,20.6,30.04,West,276,0.0,8.0,85,0.00,,,0.00,Wunderground v.1.15,2013-01-04 12:00:00,
2013-01-04 07:05:00,24.3,20.4,30.04,West,276,0.0,8.0,85,0.00,,,0.00,Wunderground v.1.15,2013-01-04 12:05:00,
2013-01-04 07:10:00,24.3,20.7,30.04,West,276,0.0,8.0,86,0.00,,,0.00,Wunderground v.1.15,2013-01-04 12:10:00,
2013-01-04 07:20:00,24.3,20.7,30.04,NW,305,0.0,8.0,86,0.00,,,0.00,Wunderground v.1.15,2013-01-04 12:20:00,
2013-01-04 07:25:00,24.6,21.0,30.04,NW,316,1.0,8.0,86,0.00,,,0.00,Wunderground v.1.15,2013-01-04 12:25:00,
2013-01-04 07:30:00,25.2,21.6,30.04,NW,305,1.0,1.0,86,0.00,,,0.00,Wunderground v.1.15,2013-01-04 12:30:00,
2013-01-04 07:35:00,25.5,21.6,30.04,WNW,292,2.0,2.0,85,0.00,,,0.00,Wunderground v.1.15,2013-01-04 12:35:00,
2013-01-04 07:40:00,25.8,21.9,30.04,WNW,289,1.0,8.0,85,0.00,,,0.00,Wunderground v.1.15,2013-01-04 12:40:00,
2013-01-04 07:45:00,26.0,21.8,30.05,WNW,287,1.0,8.0,84,0.00,,,0.00,Wunderground v.1.15,2013-01-04 12:45:00,
2013-01-04 07:50:00,26.0,21.8,30.04,West,263,0.0,8.0,84,0.00,,,0.00,Wunderground v.1.15,2013-01-04 12:50:00,
2013-01-04 08:00:00,26.4,22.5,30.04,WNW,288,1.0,1.0,85,0.00,,,0.00,Wunderground v.1.15,2013-01-04 13:00:00,
2013-01-04 08:05:00,26.6,22.4,30.04,WNW,302,2.0,2.0,84,0.00,,,0.00,Wunderground v.1.15,2013-01-04 13:05:00,
2013-01-04 08:10:00,26.7,22.5,30.04,WNW,302,1.0,8.0,84,0.00,,,0.00,Wunderground v.1.15,2013-01-04 13:10:00,
2013-01-04 08:15:00,26.8,22.6,30.04,West,263,1.0,8.0,84,0.00,,,0.00,Wunderground v.1.15,2013-01-04 13:15:00,
2013-01-04 08:20:00,26.9,23.0,30.04,NNW,336,1.0,8.0,85,0.00,,,0.00,Wunderground v.1.15,2013-01-04 13:20:00,
2013-01-04 08:30:00,27.2,23.3,30.04,NW,304,1.0,8.0,85,0.00,,,0.00,Wunderground v.1.15,2013-01-04 13:30:00,
2013-01-04 08:35:00,27.4,23.2,30.04,West,277,2.0,8.0,84,0.00,,,0.00,Wunderground v.1.15,2013-01-04 13:35:00,
2013-01-04 08:40:00,27.6,23.4,30.04,NW,305,2.0,8.0,84,0.00,,,0.00,Wunderground v.1.15,2013-01-04 13:40:00,
2013-01-04 08:45:00,27.8,23.6,30.04,WNW,298,2.0,8.0,84,0.00,,,0.00,Wunderground v.1.15,2013-01-04 13:45:00,
2013-01-04 08:50:00,28.0,23.8,30.04,West,275,2.0,2.0,84,0.00,,,0.00,Wunderground v.1.15,2013-01-04 13:50:00,
2013-01-04 08:55:00,28.1,23.9,30.04,WNW,284,2.0,8.0,84,0.00,,,0.00,Wunderground v.1.15,2013-01-04 13:55:00,
2013-01-04 09:00:00,28.2,23.7,30.04,West,261,2.0,8.0,83,0.00,,,0.00,Wunderground v.1.15,2013-01-04 14:00:00,
2013-01-04 09:05:00,28.4,23.9,30.04,WNW,301,2.0,8.0,83,0.00,,,0.00,Wunderground v.1.15,2013-01-04 14:05:00,
2013-01-04 09:15:00,28.8,24.0,30.03,West,281,1.0,8.0,82,0.00,,,0.00,Wunderground v.1.15,2013-01-04 14:15:00,
2013-01-04 09:20:00,29.1,24.3,30.03,WSW,246,2.0,8.0,82,0.00,,,0.00,Wunderground v.1.15,2013-01-04 14:20:00,
2013-01-04 09:25:00,29.9,24.8,30.02,WSW,241,2.0,8.0,81,0.00,,,0.00,Wunderground v.1.15,2013-01-04 14:25:00,
2013-01-04 09:30:00,30.5,24.8,30.02,WSW,257,2.0,8.0,79,0.00,,,0.00,Wunderground v.1.15,2013-01-04 14:30:00,
2013-01-04 09:35:00,30.3,24.3,30.02,West,261,3.0,8.0,78,0.00,,,0.00,Wunderground v.1.15,2013-01-04 14:35:00,
2013-01-04 09:40:00,30.3,24.3,30.02,West,277,3.0,3.0,78,0.00,,,0.00,Wunderground v.1.15,2013-01-04 14:40:00,
2013-01-04 09:45:00,30.6,24.6,30.02,West,269,3.0,8.0,78,0.00,,,0.00,Wunderground v.1.15,2013-01-04 14:45:00,
2013-01-04 09:55:00,31.4,24.7,30.02,NW,315,2.0,3.0,76,0.00,,,0.00,Wunderground v.1.15,2013-01-04 14:55:00,
2013-01-04 10:00:00,31.7,25.0,30.02,WNW,284,2.0,8.0,76,0.00,,,0.00,Wunderground v.1.15,2013-01-04 15:00:00,
2013-01-04 10:05:00,31.6,24.6,30.02,SW,227,3.0,8.0,75,0.00,,,0.00,Wunderground v.1.15,2013-01-04 15:05:00,
2013-01-04 10:10:00,31.3,24.3,30.02,North,350,3.0,3.0,75,0.00,,,0.00,Wunderground v.1.15,2013-01-04 15:10:00,
2013-01-04 10:15:00,31.2,24.5,30.02,NW,307,3.0,8.0,76,0.00,,,0.00,Wunderground v.1.15,2013-01-04 15:15:00,
2013-01-04 10:20:00,30.8,24.1,30.02,WNW,290,3.0,3.0,76,0.00,,,0.00,Wunderground v.1.15,2013-01-04 15:20:00,
2013-01-04 10:30:00,30.8,24.1,30.01,West,279,3.0,8.0,76,0.00,,,0.00,Wunderground v.1.15,2013-01-04 15:30:00,
2013-01-04 10:35:00,30.8,24.1,30.01,NW,310,3.0,8.0,76,0.00,,,0.00,Wunderground v.1.15,2013-01-04 15:35:00,
2013-01-04 10:40:00,30.8,23.8,30.00,NNW,338,3.0,3.0,75,0.00,,,0.00,Wunderground v.1.15,2013-01-04 15:40:00,
2013-01-04 10:50:00,31.2,24.2,30.00,NW,325,2.0,8.0,75,0.00,,,0.00,Wunderground v.1.15,2013-01-04 15:50:00,
2013-01-04 10:55:00,31.4,24.1,30.00,WSW,248,3.0,8.0,74,0.00,,,0.00,Wunderground v.1.15,2013-01-04 15:55:00,
2013-01-04 11:05:00,32.2,24.5,29.99,NW,314,2.0,8.0,73,0.00,,,0.00,Wunderground v.1.15,2013-01-04 16:05:00,
2013-01-04 11:10:00,32.4,24.4,29.99,WNW,291,2.0,8.0,72,0.00,,,0.00,Wunderground v.1.15,2013-01-04 16:10:00,
2013-01-04 11:15:00,32.8,24.4,29.99,WNW,301,3.0,8.0,71,0.00,,,0.00,Wunderground v.1.15,2013-01-04 16:15:00,
2013-01-04 11:20:00,33.4,24.7,29.98,West,274,3.0,8.0,70,0.00,,,0.00,Wunderground v.1.15,2013-01-04 16:20:00,
2013-01-04 11:30:00,33.9,24.8,29.98,WNW,295,4.0,8.0,69,0.00,,,0.01,Wunderground v.1.15,2013-01-04 16:30:00,
2013-01-04 11:40:00,32.6,23.9,29.98,NW,323,5.0,8.0,70,0.00,,,0.01,Wunderground v.1.15,2013-01-04 16:40:00,
2013-01-04 11:45:00,31.7,23.7,29.97,NNW,331,5.0,8.0,72,0.00,,,0.01,Wunderground v.1.15,2013-01-04 16:45:00,
2013-01-04 11:50:00,31.4,23.7,29.97,West,273,4.0,4.0,73,0.00,,,0.01,Wunderground v.1.15,2013-01-04 16:50:00,
2013-01-04 11:55:00,31.4,23.7,29.97,WNW,282,3.0,8.0,73,0.00,,,0.01,Wunderground v.1.15,2013-01-04 16:55:00,
2013-01-04 12:00:00,31.5,23.8,29.96,WSW,246,3.0,8.0,73,0.00,,,0.01,Wunderground v.1.15,2013-01-04 17:00:00,
2013-01-04 12:05:00,31.5,23.8,29.96,WNW,289,4.0,8.0,73,0.00,,,0.01,Wunderground v.1.15,2013-01-04 17:05:00,
2013-01-04 12:10:00,31.7,23.7,29.95,WNW,283,4.0,4.0,72,0.00,,,0.01,Wunderground v.1.15,2013-01-04 17:10:00,
2013-01-04 12:15:00,31.9,23.9,29.95,NW,324,3.0,8.0,72,0.00,,,0.01,Wunderground v.1.15,2013-01-04 17:15:00,
2013-01-04 12:25:00,34.2,24.7,29.94,North,355,3.0,8.0,68,0.00,,,0.01,Wunderground v.1.15,2013-01-04 17:25:00,
2013-01-04 12:30:00,34.7,24.5,29.94,East,94,2.0,8.0,66,0.00,,,0.01,Wunderground v.1.15,2013-01-04 17:30:00,
2013-01-04 12:35:00,35.2,25.0,29.94,West,279,3.0,8.0,66,0.00,,,0.02,Wunderground v.1.15,2013-01-04 17:35:00,
2013-01-04 12:40:00,35.0,24.0,29.93,NW,319,3.0,8.0,64,0.00,,,0.02,Wunderground v.1.15,2013-01-04 17:40:00,
2013-01-04 12:45:00,34.4,24.6,29.93,WSW,250,4.0,8.0,67,0.00,,,0.02,Wunderground v.1.15,2013-01-04 17:45:00,
2013-01-04 12:50:00,34.3,24.1,29.93,NW,311,3.0,3.0,66,0.00,,,0.02,Wunderground v.1.15,2013-01-04 17:50:00,
2013-01-04 12:55:00,34.7,24.5,29.92,WSW,240,3.0,8.0,66,0.00,,,0.02,Wunderground v.1.15,2013-01-04 17:55:00,
2013-01-04 13:05:00,34.9,23.9,29.92,WNW,286,4.0,9.0,64,0.00,,,0.02,Wunderground v.1.15,2013-01-04 18:05:00,
2013-01-04 13:10:00,34.3,23.7,29.92,WNW,296,5.0,8.0,65,0.00,,,0.02,Wunderground v.1.15,2013-01-04 18:10:00,
2013-01-04 13:15:00,34.7,24.5,29.92,WNW,297,5.0,8.0,66,0.00,,,0.02,Wunderground v.1.15,2013-01-04 18:15:00,
2013-01-04 13:25:00,35.2,24.2,29.91,West,273,4.0,8.0,64,0.00,,,0.03,Wunderground v.1.15,2013-01-04 18:25:00,
2013-01-04 13:30:00,35.2,24.2,29.91,WNW,288,5.0,8.0,64,0.00,,,0.03,Wunderground v.1.15,2013-01-04 18:30:00,
2013-01-04 13:35:00,35.4,24.0,29.91,WSW,250,5.0,8.0,63,0.00,,,0.03,Wunderground v.1.15,2013-01-04 18:35:00,
2013-01-04 13:45:00,35.6,23.9,29.91,NNW,327,4.0,8.0,62,0.00,,,0.03,Wunderground v.1.15,2013-01-04 18:45:00,
2013-01-04 13:50:00,35.6,23.9,29.91,WNW,286,4.0,8.0,62,0.00,,,0.03,Wunderground v.1.15,2013-01-04 18:50:00,
2013-01-04 13:55:00,35.4,23.3,29.91,WNW,293,5.0,8.0,61,0.00,,,0.03,Wunderground v.1.15,2013-01-04 18:55:00,
2013-01-04 14:00:00,35.6,23.9,29.91,North,11,4.0,4.0,62,0.00,,,0.03,Wunderground v.1.15,2013-01-04 19:00:00,
2013-01-04 14:05:00,36.2,23.6,29.91,WNW,290,2.0,8.0,60,0.00,,,0.04,Wunderground v.1.15,2013-01-04 19:05:00,
2013-01-04 14:10:00,35.9,23.4,29.91,NW,304,3.0,8.0,60,0.00,,,0.04,Wunderground v.1.15,2013-01-04 19:10:00,
2013-01-04 14:15:00,35.6,23.1,29.91,NW,326,4.0,8.0,60,0.00,,,0.04,Wunderground v.1.15,2013-01-04 19:15:00,
2013-01-04 14:25:00,35.3,23.6,29.91,SW,233,5.0,9.0,62,0.00,,,0.04,Wunderground v.1.15,2013-01-04 19:25:00,
2013-01-04 14:30:00,35.1,23.4,29.91,WNW,301,5.0,8.0,62,0.00,,,0.04,Wunderground v.1.15,2013-01-04 19:30:00,
2013-01-04 14:35:00,35.0,24.0,29.91,NW,308,5.0,8.0,64,0.00,,,0.04,Wunderground v.1.15,2013-01-04 19:35:00,
2013-01-04 14:40:00,35.1,23.8,29.91,NW,323,5.0,8.0,63,0.00,,,0.04,Wunderground v.1.15,2013-01-04 19:40:00,
2013-01-04 14:45:00,35.0,23.3,29.90,WNW,286,4.0,8.0,62,0.00,,,0.04,Wunderground v.1.15,2013-01-04 19:45:00,
2013-01-04 14:55:00,35.5,23.8,29.91,WNW,303,3.0,8.0,62,0.00,,,0.04,Wunderground v.1.15,2013-01-04 19:55:00,
2013-01-04 15:00:00,35.7,23.2,29.91,WNW,298,3.0,9.0,60,0.00,,,0.04,Wunderground v.1.15,2013-01-04 20:00:00,
2013-01-04 15:05:00,35.4,23.7,29.91,West,261,4.0,9.0,62,0.00,,,0.04,Wunderground v.1.15,2013-01-04 20:05:00,
2013-01-04 15:10:00,35.1,23.4,29.91,WNW,298,4.0,8.0,62,0.00,,,0.04,Wunderground v.1.15,2013-01-04 20:10:00,
2013-01-04 15:15:00,35.0,23.3,29.91,NNW,337,4.0,8.0,62,0.00,,,0.04,Wunderground v.1.15,2013-01-04 20:15:00,
2013-01-04 15:20:00,34.8,23.5,29.91,WNW,287,4.0,8.0,63,0.00,,,0.04,Wunderground v.1.15,2013-01-04 20:20:00,
2013-01-04 15:25:00,34.4,23.1,29.91,NW,326,3.0,8.0,63,0.00,,,0.04,Wunderground v.1.15,2013-01-04 20:25:00,
2013-01-04 15:35:00,33.7,22.8,29.91,West,277,3.0,8.0,64,0.00,,,0.05,Wunderground v.1.15,2013-01-04 20:35:00,
2013-01-04 15:40:00,33.5,23.0,29.91,NNW,333,3.0,8.0,65,0.00,,,0.05,Wunderground v.1.15,2013-01-04 20:40:00,
2013-01-04 15:45:00,33.4,22.5,29.91,WNW,303,4.0,8.0,64,0.00,,,0.05,Wunderground v.1.15,2013-01-04 20:45:00,
2013-01-04 15:50:00,33.3,22.4,29.90,WNW,294,4.0,8.0,64,0.00,,,0.05,Wunderground v.1.15,2013-01-04 20:50:00,
2013-01-04 15:55:00,33.1,22.6,29.90,WNW,286,4.0,8.0,65,0.00,,,0.05,Wunderground v.1.15,2013-01-04 20:55:00,
2013-01-04 16:00:00,33.0,22.9,29.90,NW,309,4.0,4.0,66,0.00,,,0.05,Wunderground v.1.15,2013-01-04 21:00:00,
2013-01-04 16:10:00,32.6,22.5,29.90,WNW,303,3.0,8.0,66,0.00,,,0.05,Wunderground v.1.15,2013-01-04 21:10:00,
2013-01-04 16:15:00,32.4,22.3,29.90,NW,304,3.0,8.0,66,0.00,,,0.05,Wunderground v.1.15,2013-01-04 21:15:00,
2013-01-04 16:20:00,32.2,22.1,29.90,NW,322,3.0,8.0,66,0.00,,,0.05,Wunderground v.1.15,2013-01-04 21:20:00,
2013-01-04 16:25:00,32.1,22.4,29.90,WNW,286,4.0,8.0,67,0.00,,,0.05,Wunderground v.1.15,2013-01-04 21:25:00,
2013-01-04 16:30:00,32.0,22.3,29.90,West,278,4.0,4.0,67,0.00,,,0.05,Wunderground v.1.15,2013-01-04 21:30:00,
2013-01-04 16:35:00,31.8,22.1,29.90,West,271,3.0,8.0,67,0.00,,,0.05,Wunderground v.1.15,2013-01-04 21:35:00,
2013-01-04 16:45:00,31.6,22.2,29.90,NW,304,2.0,8.0,68,0.00,,,0.05,Wunderground v.1.15,2013-01-04 21:45:00,
2013-01-04 17:55:00,31.0,21.3,29.91,NW,306,3.0,8.0,67,0.00,,,0.05,Wunderground v.1.15,2013-01-04 22:55:00,
2013-01-04 18:00:00,30.9,21.6,29.91,WNW,298,2.0,8.0,68,0.00,,,0.05,Wunderground v.1.15,2013-01-04 23:00:00,
2013-01-04 18:05:00,30.8,21.5,29.91,NW,306,2.0,8.0,68,0.00,,,0.05,Wunderground v.1.15,2013-01-04 23:05:00,
2013-01-04 18:15:00,30.6,21.3,29.91,NNW,332,2.0,8.0,68,0.00,,,0.05,Wunderground v.1.15,2013-01-04 23:15:00,
2013-01-04 18:20:00,30.5,21.2,29.91,NNW,327,2.0,8.0,68,0.00,,,0.05,Wunderground v.1.15,2013-01-04 23:20:00,
2013-01-04 18:25:00,30.5,21.2,29.92,West,275,2.0,8.0,68,0.00,,,0.05,Wunderground v.1.15,2013-01-04 23:25:00,
2013-01-04 18:30:00,30.4,21.1,29.91,NNW,329,2.0,2.0,68,0.00,,,0.05,Wunderground v.1.15,2013-01-04 23:30:00,
2013-01-04 18:35:00,30.5,21.2,29.92,NW,305,2.0,8.0,68,0.00,,,0.05,Wunderground v.1.15,2013-01-04 23:35:00,
2013-01-04 18:40:00,30.6,21.3,29.92,NNW,331,2.0,2.0,68,0.00,,,0.05,Wunderground v.1.15,2013-01-04 23:40:00,
2013-01-04 18:50:00,30.2,20.9,29.92,West,265,2.0,8.0,68,0.00,,,0.05,Wunderground v.1.15,2013-01-04 23:50:00,
2013-01-04 18:55:00,30.4,21.1,29.92,West,267,2.0,8.0,68,0.00,,,0.05,Wunderground v.1.15,2013-01-04 23:55:00,
2013-01-04 19:00:00,30.4,21.1,29.92,NW,315,2.0,8.0,68,0.00,,,0.05,Wunderground v.1.15,2013-01-05 00:00:00,
2013-01-04 19:05:00,30.3,21.0,29.92,NNW,327,2.0,8.0,68,0.00,,,0.05,Wunderground v.1.15,2013-01-05 00:05:00,
2013-01-04 19:10:00,30.3,21.0,29.92,WNW,282,2.0,8.0,68,0.00,,,0.05,Wunderground v.1.15,2013-01-05 00:10:00,
2013-01-04 19:15:00,30.3,21.0,29.92,WNW,296,3.0,8.0,68,0.00,,,0.05,Wunderground v.1.15,2013-01-05 00:15:00,
2013-01-04 19:20:00,30.2,20.9,29.92,NW,307,3.0,8.0,68,0.00,,,0.05,Wunderground v.1.15,2013-01-05 00:20:00,
2013-01-04 19:30:00,30.4,21.1,29.92,NW,307,3.0,3.0,68,0.00,,,0.05,Wunderground v.1.15,2013-01-05 00:30:00,
2013-01-04 19:35:00,30.2,20.9,29.92,NW,326,3.0,8.0,68,0.00,,,0.05,Wunderground v.1.15,2013-01-05 00:35:00,
2013-01-04 19:40:00,30.2,20.9,29.92,NW,317,2.0,2.0,68,0.00,,,0.05,Wunderground v.1.15,2013-01-05 00:40:00,
2013-01-04 19:45:00,30.1,20.8,29.92,NNE,17,2.0,8.0,68,0.00,,,0.05,Wunderground v.1.15,2013-01-05 00:45:00,
2013-01-04 19:50:00,29.9,20.6,29.92,NW,311,1.0,1.0,68,0.00,,,0.05,Wunderground v.1.15,2013-01-05 00:50:00,
2013-01-04 19:55:00,29.8,20.5,29.92,WNW,300,2.0,3.0,68,0.00,,,0.05,Wunderground v.1.15,2013-01-05 00:55:00,
2013-01-04 20:00:00,29.9,20.6,29.92,WNW,302,2.0,8.0,68,0.00,,,0.05,Wunderground v.1.15,2013-01-05 01:00:00,
2013-01-04 20:05:00,29.8,20.5,29.92,NNW,339,2.0,8.0,68,0.00,,,0.05,Wunderground v.1.15,2013-01-05 01:05:00,
2013-01-04 20:15:00,29.6,20.3,29.92,NNW,340,2.0,8.0,68,0.00,,,0.05,Wunderground v.1.15,2013-01-05 01:15:00,
2013-01-04 20:20:00,29.6,20.7,29.92,NNW,340,2.0,8.0,69,0.00,,,0.05,Wunderground v.1.15,2013-01-05 01:20:00,
2013-01-04 20:25:00,29.5,20.6,29.92,NNW,330,2.0,8.0,69,0.00,,,0.05,Wunderground v.1.15,2013-01-05 01:25:00,
2013-01-04 20:30:00,29.3,20.4,29.92,NE,39,1.0,1.0,69,0.00,,,0.05,Wunderground v.1.15,2013-01-05 01:30:00,
2013-01-04 20:35:00,29.1,20.2,29.92,SSW,207,1.0,2.0,69,0.00,,,0.05,Wunderground v.1.15,2013-01-05 01:35:00,
2013-01-04 20:40:00,29.1,20.5,29.92,NNW,342,1.0,8.0,70,0.00,,,0.05,Wunderground v.1.15,2013-01-05 01:40:00,
2013-01-04 20:45:00,29.0,20.4,29.92,NNE,32,1.0,8.0,70,0.00,,,0.05,Wunderground v.1.15,2013-01-05 01:45:00,
2013-01-04 20:55:00,28.8,20.2,29.92,NNW,337,1.0,8.0,70,0.00,,,0.05,Wunderground v.1.15,2013-01-05 01:55:00,
2013-01-04 21:00:00,28.8,20.2,29.92,NNW,338,2.0,8.0,70,0.00,,,0.05,Wunderground v.1.15,2013-01-05 02:00:00,
2013-01-04 21:05:00,28.9,20.3,29.92,NW,315,2.0,8.0,70,0.00,,,0.05,Wunderground v.1.15,2013-01-05 02:05:00,
2013-01-04 21:15:00,28.6,20.1,29.92,NNW,338,1.0,8.0,70,0.00,,,0.05,Wunderground v.1.15,2013-01-05 02:15:00,
2013-01-04 21:20:00,28.7,20.1,29.93,NNE,28,1.0,1.0,70,0.00,,,0.05,Wunderground v.1.15,2013-01-05 02:20:00,
2013-01-04 21:25:00,28.7,20.1,29.93,NNW,334,2.0,2.0,70,0.00,,,0.05,Wunderground v.1.15,2013-01-05 02:25:00,
2013-01-04 21:35:00,28.6,20.1,29.93,NW,304,1.0,4.0,70,0.00,,,0.05,Wunderground v.1.15,2013-01-05 02:35:00,
2013-01-04 21:40:00,28.6,20.4,29.92,North,355,2.0,8.0,71,0.00,,,0.05,Wunderground v.1.15,2013-01-05 02:40:00,
2013-01-04 21:45:00,28.5,20.0,29.92,NNW,327,2.0,8.0,70,0.00,,,0.05,Wunderground v.1.15,2013-01-05 02:45:00,
2013-01-04 21:50:00,28.5,20.3,29.92,NW,323,2.0,2.0,71,0.00,,,0.05,Wunderground v.1.15,2013-01-05 02:50:00,
2013-01-04 21:55:00,28.6,20.1,29.92,NNW,333,2.0,8.0,70,0.00,,,0.05,Wunderground v.1.15,2013-01-05 02:55:00,
2013-01-04 22:00:00,28.7,20.1,29.92,NNW,344,2.0,8.0,70,0.00,,,0.05,Wunderground v.1.15,2013-01-05 03:00:00,
2013-01-04 22:05:00,28.5,20.0,29.92,NNW,332,2.0,8.0,70,0.00,,,0.05,Wunderground v.1.15,2013-01-05 03:05:00,
2013-01-04 22:15:00,28.4,19.9,29.93,NNW,334,1.0,8.0,70,0.00,,,0.05,Wunderground v.1.15,2013-01-05 03:15:00,
2013-01-04 22:20:00,28.5,20.0,29.93,NNW,342,2.0,2.0,70,0.00,,,0.05,Wunderground v.1.15,2013-01-05 03:20:00,
2013-01-04 22:25:00,28.4,19.9,29.93,NNE,25,1.0,8.0,70,0.00,,,0.05,Wunderground v.1.15,2013-01-05 03:25:00,
2013-01-04 22:30:00,28.4,19.9,29.93,NNW,340,1.0,8.0,70,0.00,,,0.05,Wunderground v.1.15,2013-01-05 03:30:00,
2013-01-04 22:35:00,28.1,19.6,29.93,North,5,2.0,8.0,70,0.00,,,0.05,Wunderground v.1.15,2013-01-05 03:35:00,
2013-01-04 22:40:00,28.1,19.6,29.93,NW,321,2.0,2.0,70,0.00,,,0.05,Wunderground v.1.15,2013-01-05 03:40:00,
2013-01-04 22:50:00,28.0,19.5,29.94,NNW,333,1.0,8.0,70,0.00,,,0.05,Wunderground v.1.15,2013-01-05 03:50:00,
2013-01-04 22:55:00,28.1,19.6,29.94,NNW,334,2.0,8.0,70,0.00,,,0.05,Wunderground v.1.15,2013-01-05 03:55:00,
2013-01-04 23:00:00,28.0,19.5,29.94,NE,40,2.0,2.0,70,0.00,,,0.05,Wunderground v.1.15,2013-01-05 04:00:00,
2013-01-04 23:05:00,27.8,19.6,29.94,NNW,334,1.0,8.0,71,0.00,,,0.05,Wunderground v.1.15,2013-01-05 04:05:00,
2013-01-04 23:10:00,27.8,19.3,29.94,NW,326,1.0,8.0,70,0.00,,,0.05,Wunderground v.1.15,2013-01-05 04:10:00,
2013-01-04 23:15:00,27.8,19.3,29.94,NNW,334,1.0,8.0,70,0.00,,,0.05,Wunderground v.1.15,2013-01-05 04:15:00,
2013-01-04 23:20:00,27.7,19.5,29.94,NNW,338,1.0,8.0,71,0.00,,,0.05,Wunderground v.1.15,2013-01-05 04:20:00,
2013-01-04 23:30:00,27.5,19.3,29.94,NW,325,1.0,8.0,71,0.00,,,0.05,Wunderground v.1.15,2013-01-05 04:30:00,
2013-01-04 23:35:00,27.5,19.3,29.94,North,355,1.0,8.0,71,0.00,,,0.05,Wunderground v.1.15,2013-01-05 04:35:00,
2013-01-04 23:40:00,27.4,19.2,29.94,NW,311,1.0,1.0,71,0.00,,,0.05,Wunderground v.1.15,2013-01-05 04:40:00,
2013-01-04 23:45:00,27.2,19.0,29.94,NNW,344,1.0,2.0,71,0.00,,,0.05,Wunderground v.1.15,2013-01-05 04:45:00,
2013-01-04 23:50:00,27.1,18.9,29.94,NNW,340,0.0,8.0,71,0.00,,,0.05,Wunderground v.1.15,2013-01-05 04:50:00,
2013-01-04 23:55:00,26.9,18.7,29.95,North,360,1.0,8.0,71,0.00,,,0.05,Wunderground v.1.15,2013-01-05 04:55:00,